Time;durP1;ratioP1;P1;durP2;ratioP2;P2;SDS_P1;SDS_P2;PMS_P1;PMS_P2;Temp;Humidity;BMP_temperature;BMP_pressure;BME280_temperature;BME280_humidity;BME280_pressure;Samples;Min_cycle;Max_cycle;Signal;HPM_P1;HPM_P2
2022/11/07 00:02:05;;;;;;;5.93;1.88;;;11.50;99.90;;;;;;5100366;28;20040;-69
2022/11/07 00:04:32;;;;;;;7.60;2.42;;;11.50;99.90;;;;;;5100194;28;20104;-69
2022/11/07 00:07:00;;;;;;;7.35;2.28;;;11.50;99.90;;;;;;5083712;28;20085;-70
2022/11/07 00:09:26;;;;;;;7.13;2.55;;;11.50;99.90;;;;;;5100932;28;20024;-71
2022/11/07 00:11:52;;;;;;;8.38;2.30;;;11.50;99.90;;;;;;5099617;28;20058;-71
2022/11/07 00:14:18;;;;;;;5.47;2.22;;;11.50;99.90;;;;;;5100602;28;20024;-70
2022/11/07 00:16:45;;;;;;;5.50;2.45;;;11.50;99.90;;;;;;5100443;28;20047;-70
2022/11/07 00:19:14;;;;;;;6.63;2.40;;;11.60;99.90;;;;;;5099659;28;20037;-67
2022/11/07 00:21:40;;;;;;;6.88;2.20;;;11.60;99.90;;;;;;5100398;28;20295;-66
2022/11/07 00:24:07;;;;;;;4.53;1.95;;;11.70;99.90;;;;;;5099414;28;20032;-66
2022/11/07 00:26:34;;;;;;;4.70;2.20;;;11.60;99.90;;;;;;5100452;28;20406;-68
2022/11/07 00:28:59;;;;;;;8.23;2.60;;;11.70;99.90;;;;;;5100492;28;20039;-68
2022/11/07 00:31:25;;;;;;;6.90;2.65;;;11.70;99.90;;;;;;5100421;28;20020;-69
2022/11/07 00:33:51;;;;;;;9.35;2.63;;;11.70;99.90;;;;;;5099825;28;20036;-66
2022/11/07 00:36:23;;;;;;;8.05;2.78;;;11.60;99.90;;;;;;5082375;28;20395;-68
2022/11/07 00:38:49;;;;;;;5.30;2.20;;;11.60;99.90;;;;;;5099358;28;20019;-69
2022/11/07 00:41:15;;;;;;;9.48;3.17;;;11.60;99.90;;;;;;5082396;28;20028;-65
2022/11/07 00:43:41;;;;;;;7.13;3.05;;;11.60;99.90;;;;;;5099916;28;20391;-69
2022/11/07 00:46:09;;;;;;;7.10;2.60;;;11.60;99.90;;;;;;5099537;28;20016;-67
2022/11/07 00:48:35;;;;;;;7.53;2.75;;;11.60;99.90;;;;;;5081862;28;20058;-68
2022/11/07 00:51:08;;;;;;;7.35;2.75;;;11.60;99.90;;;;;;5099546;28;20024;-67
2022/11/07 00:53:33;;;;;;;;;;;11.50;99.90;;;;;;5099228;28;20097;-69
2022/11/07 00:56:04;;;;;;;7.72;2.75;;;11.50;99.90;;;;;;5081677;28;19915;-69
2022/11/07 00:58:30;;;;;;;7.50;2.22;;;11.60;99.90;;;;;;5099128;28;20382;-67
2022/11/07 01:00:56;;;;;;;11.73;3.05;;;11.50;99.90;;;;;;5099208;28;20116;-71
2022/11/07 01:06:07;;;;;;;6.20;2.75;;;11.40;99.90;;;;;;5099173;28;20028;-70
2022/11/07 01:08:33;;;;;;;6.40;2.47;;;11.40;99.90;;;;;;5099920;28;20031;-69
2022/11/07 01:11:04;;;;;;;7.35;2.45;;;11.40;99.90;;;;;;5098425;28;20361;-67
2022/11/07 01:13:30;;;;;;;9.52;2.50;;;11.50;99.90;;;;;;5098958;28;20036;-69
2022/11/07 01:15:56;;;;;;;7.85;2.47;;;11.50;99.90;;;;;;5098189;28;20040;-71
2022/11/07 01:18:22;;;;;;;7.50;2.58;;;11.50;99.90;;;;;;5098046;28;20272;-70
2022/11/07 01:20:48;;;;;;;10.57;2.45;;;11.50;99.90;;;;;;5097965;28;20028;-68
2022/11/07 01:23:15;;;;;;;8.35;2.40;;;11.50;99.90;;;;;;5097976;28;20388;-68
2022/11/07 01:25:41;;;;;;;10.45;2.65;;;11.50;99.90;;;;;;5098561;28;20371;-70
2022/11/07 01:28:10;;;;;;;9.90;2.58;;;11.60;99.90;;;;;;5097810;28;20069;-67
2022/11/07 01:30:43;;;;;;;9.30;2.40;;;11.60;99.90;;;;;;5099109;28;20102;-69
2022/11/07 01:33:09;;;;;;;11.48;2.72;;;11.50;99.90;;;;;;5098474;28;20039;-68
2022/11/07 01:35:36;;;;;;;8.52;2.17;;;11.50;99.90;;;;;;5099009;28;20089;-70
2022/11/07 01:38:02;;;;;;;9.15;2.50;;;11.50;99.90;;;;;;5080648;28;20480;-70
2022/11/07 01:40:28;;;;;;;12.70;2.13;;;11.50;99.90;;;;;;5098546;28;20035;-70
2022/11/07 01:42:54;;;;;;;11.52;2.83;;;11.50;99.90;;;;;;5097547;28;20040;-70
2022/11/07 01:45:26;;;;;;;8.57;2.25;;;11.50;99.90;;;;;;5098269;28;20294;-68
2022/11/07 01:47:57;;;;;;;10.20;2.45;;;11.50;99.90;;;;;;5097400;28;20024;-68
2022/11/07 01:50:23;;;;;;;9.55;2.28;;;11.50;99.90;;;;;;5098155;28;20054;-70
2022/11/07 01:52:51;;;;;;;11.90;3.03;;;11.60;99.90;;;;;;5080666;28;20067;-67
2022/11/07 01:55:26;;;;;;;9.45;2.10;;;11.60;99.90;;;;;;5098730;28;20028;-68
2022/11/07 01:58:12;;;;;;;8.65;1.95;;;11.60;99.90;;;;;;5098028;28;20044;-70
2022/11/07 02:00:38;;;;;;;11.32;2.28;;;11.70;99.90;;;;;;5096347;28;20399;-70
2022/11/07 02:03:10;;;;;;;10.52;2.20;;;11.70;99.90;;;;;;5097126;28;20103;-69
2022/11/07 02:05:59;;;;;;;12.80;2.58;;;11.70;99.90;;;;;;5098053;28;20024;-70
2022/11/07 02:08:26;;;;;;;9.85;2.20;;;11.80;99.90;;;;;;5096509;28;20066;-69
2022/11/07 02:10:52;;;;;;;8.48;2.10;;;11.90;99.90;;;;;;5097180;28;20406;-67
2022/11/07 02:13:26;;;;;;;10.80;2.30;;;11.90;99.90;;;;;;5097742;28;20160;-70
2022/11/07 02:15:52;;;;;;;7.55;2.08;;;11.90;99.90;;;;;;5098032;28;20031;-70
2022/11/07 02:18:19;;;;;;;14.35;2.17;;;12.00;99.90;;;;;;5097807;28;20491;-70
2022/11/07 02:20:46;;;;;;;12.68;1.88;;;12.00;99.90;;;;;;5097688;28;20277;-68
2022/11/07 02:23:29;;;;;;;9.02;2.22;;;12.10;99.90;;;;;;5096734;28;20154;-67
2022/11/07 02:25:55;;;;;;;10.73;2.25;;;12.10;99.90;;;;;;5097459;28;20024;-69
2022/11/07 02:28:22;;;;;;;9.80;2.10;;;12.10;99.90;;;;;;5097510;28;20028;-70
2022/11/07 02:30:48;;;;;;;10.32;2.40;;;12.10;99.90;;;;;;5096614;28;20185;-67
2022/11/07 02:33:19;;;;;;;8.65;2.00;;;12.10;99.90;;;;;;5096778;28;20073;-68
2022/11/07 02:35:48;;;;;;;11.73;2.45;;;12.10;99.90;;;;;;5097709;28;20296;-70
2022/11/07 02:38:30;;;;;;;9.32;2.05;;;12.20;99.90;;;;;;5096545;28;20036;-68
2022/11/07 02:41:03;;;;;;;12.05;2.10;;;12.10;99.90;;;;;;5096552;28;20406;-66
2022/11/07 02:43:31;;;;;;;9.45;2.25;;;12.10;99.90;;;;;;5097174;28;20277;-69
2022/11/07 02:46:01;;;;;;;11.35;2.10;;;12.10;99.90;;;;;;5096528;28;20077;-69
2022/11/07 02:48:31;;;;;;;12.10;2.22;;;12.10;99.90;;;;;;5096458;28;20032;-68
2022/11/07 02:50:58;;;;;;;14.43;3.05;;;12.20;99.90;;;;;;5096436;28;20111;-65
2022/11/07 02:53:23;;;;;;;9.35;2.13;;;12.20;99.90;;;;;;5096334;28;20042;-70
2022/11/07 02:55:49;;;;;;;10.93;2.47;;;12.20;99.90;;;;;;5097170;28;20326;-65
2022/11/07 02:58:15;;;;;;;10.75;2.15;;;12.20;99.90;;;;;;5096117;28;20052;-67
2022/11/07 03:00:41;;;;;;;9.50;2.22;;;12.20;99.90;;;;;;5096252;28;20089;-66
2022/11/07 03:03:07;;;;;;;10.52;2.50;;;12.20;99.90;;;;;;5096284;28;20029;-69
2022/11/07 03:05:33;;;;;;;12.32;2.60;;;12.20;99.90;;;;;;5097087;28;20056;-68
2022/11/07 03:07:58;;;;;;;9.02;2.22;;;12.20;99.90;;;;;;5096283;28;20414;-68
2022/11/07 03:10:24;;;;;;;11.77;2.38;;;12.30;99.90;;;;;;5096224;28;20054;-69
2022/11/07 03:12:50;;;;;;;17.40;2.67;;;12.20;99.90;;;;;;5100757;28;20088;-69
2022/11/07 03:15:16;;;;;;;10.95;1.80;;;12.30;99.90;;;;;;5101212;28;20036;-68
2022/11/07 03:17:41;;;;;;;12.07;1.80;;;12.30;99.90;;;;;;5100201;28;20044;-67
2022/11/07 03:20:08;;;;;;;14.32;2.83;;;12.30;99.90;;;;;;5083428;28;20043;-70
2022/11/07 03:22:34;;;;;;;10.88;1.83;;;12.30;99.90;;;;;;5100888;28;20075;-73
2022/11/07 03:24:59;;;;;;;12.98;2.50;;;12.30;99.90;;;;;;5066596;28;20391;-73
2022/11/07 03:27:25;;;;;;;12.45;2.35;;;12.20;99.90;;;;;;5100903;28;20280;-68
2022/11/07 03:29:51;;;;;;;14.52;1.90;;;12.10;99.90;;;;;;5083171;28;20406;-70
2022/11/07 03:32:17;;;;;;;12.65;1.85;;;12.10;99.90;;;;;;5100498;28;20127;-66
2022/11/07 03:34:42;;;;;;;19.20;2.72;;;12.20;99.90;;;;;;5083143;28;20122;-68
2022/11/07 03:37:08;;;;;;;16.38;3.03;;;12.20;99.90;;;;;;5100039;28;20024;-67
2022/11/07 03:39:34;;;;;;;14.80;2.58;;;12.20;99.90;;;;;;5100000;28;20063;-68
2022/11/07 03:42:00;;;;;;;19.80;2.72;;;12.20;99.90;;;;;;5100319;28;20302;-69
2022/11/07 03:44:25;;;;;;;8.80;1.92;;;12.10;99.90;;;;;;5100020;28;20056;-69
2022/11/07 03:46:51;;;;;;;15.05;2.22;;;12.10;99.90;;;;;;5099793;28;20024;-70
2022/11/07 03:49:17;;;;;;;13.40;2.15;;;12.10;99.90;;;;;;5083071;28;20411;-71
2022/11/07 03:51:43;;;;;;;15.00;1.92;;;12.10;99.90;;;;;;5066142;28;20100;-69
2022/11/07 03:54:09;;;;;;;8.90;1.88;;;12.10;99.90;;;;;;5099743;28;20028;-72
2022/11/07 03:56:35;;;;;;;14.80;2.28;;;12.10;99.90;;;;;;5083419;28;20281;-70
2022/11/07 03:59:01;;;;;;;10.68;2.00;;;12.10;99.90;;;;;;5083012;28;20052;-72
2022/11/07 04:01:27;;;;;;;11.85;1.90;;;12.20;99.90;;;;;;5100220;28;20096;-68
2022/11/07 04:03:52;;;;;;;13.35;2.13;;;12.20;99.90;;;;;;5082870;28;20383;-72
2022/11/07 04:06:18;;;;;;;9.27;1.85;;;12.20;99.90;;;;;;5082851;28;20040;-72
2022/11/07 04:08:44;;;;;;;12.00;2.00;;;12.10;99.90;;;;;;5100451;28;20024;-71
2022/11/07 04:17:17;;;;;;;10.68;1.90;;;12.10;99.90;;;;;;5099898;28;20126;-71
2022/11/07 04:19:25;;;;;;;12.05;1.90;;;12.10;99.90;;;;;;5100081;28;20048;-73
2022/11/07 04:21:51;;;;;;;14.50;1.90;;;12.20;99.90;;;;;;5099863;28;20067;-71
2022/11/07 04:24:17;;;;;;;14.48;2.45;;;12.20;99.90;;;;;;5098606;28;20177;-73
2022/11/07 04:29:27;;;;;;;11.07;2.15;;;12.20;99.90;;;;;;5099243;28;20350;-73
2022/11/07 04:31:52;;;;;;;13.82;2.45;;;12.20;99.90;;;;;;5100127;28;20112;-70
2022/11/07 04:34:18;;;;;;;22.10;5.95;;;12.20;99.90;;;;;;5081834;28;20060;-70
2022/11/07 04:36:44;;;;;;;13.70;1.80;;;12.30;99.90;;;;;;5098011;28;20035;-72
2022/11/07 04:39:10;;;;;;;12.00;2.22;;;12.20;99.90;;;;;;5081877;28;20100;-71
2022/11/07 04:41:35;;;;;;;15.95;2.47;;;12.30;99.90;;;;;;5099190;28;20024;-68
2022/11/07 04:44:01;;;;;;;15.10;2.10;;;12.30;99.90;;;;;;5098725;28;20107;-70
2022/11/07 04:46:27;;;;;;;16.60;2.53;;;12.30;99.90;;;;;;5099390;28;20038;-68
2022/11/07 04:48:53;;;;;;;9.07;2.00;;;12.40;99.90;;;;;;5098575;28;20407;-68
2022/11/07 04:51:21;;;;;;;10.73;2.08;;;12.40;99.90;;;;;;5065044;28;20035;-67
2022/11/07 04:53:47;;;;;;;10.77;2.55;;;12.30;99.90;;;;;;5099145;28;20089;-74
2022/11/07 04:56:13;;;;;;;13.20;2.25;;;12.30;99.90;;;;;;5099219;28;20032;-72
2022/11/07 04:58:38;;;;;;;13.70;2.28;;;12.30;99.90;;;;;;5098935;28;20052;-69
2022/11/07 05:01:04;;;;;;;18.92;2.08;;;12.30;99.90;;;;;;5099087;28;20032;-71
2022/11/07 05:03:30;;;;;;;13.50;2.10;;;12.30;99.90;;;;;;5098961;28;20036;-71
2022/11/07 05:05:56;;;;;;;11.60;1.60;;;12.30;99.90;;;;;;5099152;28;20349;-71
2022/11/07 05:08:22;;;;;;;10.40;2.17;;;12.30;99.90;;;;;;5098227;28;20368;-71
2022/11/07 05:10:47;;;;;;;12.27;2.35;;;12.30;99.90;;;;;;5098124;28;20428;-69
2022/11/07 05:13:13;;;;;;;13.63;2.22;;;12.40;99.90;;;;;;5098001;28;20051;-70
2022/11/07 05:15:39;;;;;;;13.70;1.90;;;12.30;99.90;;;;;;5098215;28;20028;-69
2022/11/07 05:18:05;;;;;;;12.80;2.53;;;12.20;99.90;;;;;;5098080;28;20036;-70
2022/11/07 05:20:34;;;;;;;12.35;2.22;;;12.20;99.90;;;;;;5097900;28;20020;-68
2022/11/07 05:23:13;;;;;;;10.85;2.03;;;12.20;99.90;;;;;;5097809;28;20040;-71
2022/11/07 05:25:57;;;;;;;12.32;2.65;;;12.20;99.90;;;;;;5098015;28;20032;-69
2022/11/07 05:28:25;;;;;;;15.45;2.30;;;12.10;99.90;;;;;;5097904;28;20073;-71
2022/11/07 05:30:51;;;;;;;17.17;2.42;;;12.10;99.90;;;;;;5097810;28;20023;-72
2022/11/07 05:33:17;;;;;;;9.23;2.30;;;12.10;99.90;;;;;;5098423;28;20032;-70
2022/11/07 05:35:44;;;;;;;14.70;2.38;;;12.00;99.90;;;;;;5096769;28;20040;-70
2022/11/07 05:38:10;;;;;;;17.25;2.45;;;12.00;99.90;;;;;;5097529;28;20051;-71
2022/11/07 05:40:38;;;;;;;13.77;2.50;;;12.10;99.90;;;;;;5098640;28;20391;-73
2022/11/07 05:43:12;;;;;;;12.98;2.35;;;12.10;99.90;;;;;;5098256;28;20020;-69
2022/11/07 05:45:39;;;;;;;12.23;2.10;;;12.10;99.90;;;;;;5097810;28;20043;-69
2022/11/07 05:48:11;;;;;;;13.52;2.38;;;12.00;99.90;;;;;;5098280;28;20028;-70
2022/11/07 05:50:37;;;;;;;17.00;3.08;;;12.00;99.90;;;;;;5098189;28;20024;-67
2022/11/07 05:53:03;;;;;;;16.35;2.60;;;12.00;99.90;;;;;;5080353;28;20036;-72
2022/11/07 05:55:29;;;;;;;13.10;2.17;;;11.90;99.90;;;;;;5080533;28;20089;-70
2022/11/07 05:57:55;;;;;;;11.55;2.42;;;12.00;99.90;;;;;;5080444;28;20059;-68
2022/11/07 06:00:21;;;;;;;13.75;2.35;;;11.90;99.90;;;;;;5097384;28;20020;-71
2022/11/07 06:03:01;;;;;;;15.93;2.70;;;11.90;99.90;;;;;;5097881;28;20070;-70
2022/11/07 06:05:28;;;;;;;13.27;3.13;;;11.80;99.90;;;;;;5097863;28;20418;-70
2022/11/07 06:07:54;;;;;;;16.80;2.85;;;11.80;99.90;;;;;;5097132;28;20086;-71
2022/11/07 06:10:21;;;;;;;16.40;2.58;;;11.80;99.90;;;;;;5080118;28;20035;-71
2022/11/07 06:12:46;;;;;;;17.58;2.33;;;11.80;99.90;;;;;;5097540;28;20028;-72
2022/11/07 06:15:12;;;;;;;12.30;2.28;;;11.80;99.90;;;;;;5096829;28;20035;-73
2022/11/07 06:17:38;;;;;;;19.65;2.45;;;11.80;99.90;;;;;;5079773;28;20032;-73
2022/11/07 06:20:05;;;;;;;14.90;2.72;;;11.80;99.90;;;;;;5097250;28;20039;-73
2022/11/07 06:22:30;;;;;;;13.85;2.22;;;11.90;99.90;;;;;;5096696;28;20028;-74
2022/11/07 06:24:56;;;;;;;19.58;3.03;;;11.90;99.90;;;;;;5080851;28;20124;-73
2022/11/07 06:27:22;;;;;;;16.10;2.60;;;11.90;99.90;;;;;;5096810;28;20024;-73
2022/11/07 06:29:48;;;;;;;14.52;2.83;;;11.90;99.90;;;;;;5079943;28;20028;-73
2022/11/07 06:32:13;;;;;;;14.27;2.38;;;11.90;99.90;;;;;;5097436;28;20036;-73
2022/11/07 06:34:39;;;;;;;13.52;2.88;;;11.80;99.90;;;;;;5096647;28;20048;-70
2022/11/07 06:37:05;;;;;;;13.43;3.00;;;11.90;99.90;;;;;;5096855;28;20028;-73
2022/11/07 06:39:31;;;;;;;13.07;2.00;;;11.90;99.90;;;;;;5096761;28;20036;-74
2022/11/07 06:41:56;;;;;;;21.50;2.75;;;11.90;99.90;;;;;;5096675;28;20288;-73
2022/11/07 06:44:22;;;;;;;17.10;2.90;;;11.90;99.90;;;;;;5096369;28;20061;-73
2022/11/07 06:46:48;;;;;;;11.55;2.70;;;11.90;99.90;;;;;;5096278;28;20410;-73
2022/11/07 06:49:14;;;;;;;24.15;3.33;;;11.90;99.90;;;;;;5097530;28;20036;-75
2022/11/07 06:51:40;;;;;;;20.40;3.08;;;11.90;99.90;;;;;;5096898;28;20419;-73
2022/11/07 06:54:06;;;;;;;20.80;2.72;;;11.80;99.90;;;;;;5079463;28;20020;-73
2022/11/07 06:56:32;;;;;;;16.80;2.53;;;11.90;99.90;;;;;;5080362;28;20028;-72
2022/11/07 06:58:58;;;;;;;14.60;2.78;;;11.90;99.90;;;;;;5079257;28;20040;-69
2022/11/07 07:01:23;;;;;;;17.40;2.72;;;11.90;99.90;;;;;;5096309;28;20068;-72
2022/11/07 07:03:49;;;;;;;15.40;2.45;;;11.90;99.90;;;;;;5096995;28;20164;-70
2022/11/07 07:06:16;;;;;;;17.38;2.78;;;11.90;99.90;;;;;;5096090;28;20053;-73
2022/11/07 07:08:43;;;;;;;19.65;2.63;;;11.90;99.90;;;;;;5096133;28;20032;-73
2022/11/07 07:11:11;;;;;;;20.60;2.95;;;12.00;99.90;;;;;;5096859;28;20020;-72
2022/11/07 07:13:37;;;;;;;12.13;2.30;;;12.00;99.90;;;;;;5079401;28;20139;-73
2022/11/07 07:16:04;;;;;;;12.70;2.13;;;12.00;99.90;;;;;;5095952;28;20395;-73
2022/11/07 07:18:30;;;;;;;14.60;2.17;;;12.00;99.90;;;;;;5096237;28;20066;-71
2022/11/07 07:21:08;;;;;;;14.15;2.58;;;12.10;99.90;;;;;;5097654;28;20039;-72
2022/11/07 07:23:36;;;;;;;13.25;2.53;;;12.10;99.90;;;;;;5096771;28;20039;-73
2022/11/07 07:26:03;;;;;;;12.75;2.28;;;12.10;99.90;;;;;;5096089;28;20334;-72
2022/11/07 07:28:29;;;;;;;19.25;3.35;;;12.10;99.90;;;;;;5079268;28;20028;-71
2022/11/07 07:31:06;;;;;;;13.25;2.40;;;12.10;99.90;;;;;;5096277;28;20085;-73
2022/11/07 07:33:32;;;;;;;18.80;3.00;;;12.10;99.90;;;;;;5079234;28;20395;-71
2022/11/07 07:35:57;;;;;;;12.50;2.20;;;12.10;99.90;;;;;;5097352;28;20055;-71
2022/11/07 07:38:23;;;;;;;12.48;2.20;;;12.10;99.90;;;;;;5095974;28;20039;-71
2022/11/07 07:40:49;;;;;;;15.77;2.72;;;12.10;99.90;;;;;;5096990;28;20082;-72
2022/11/07 07:43:15;;;;;;;10.55;2.35;;;12.20;99.90;;;;;;5095837;28;20043;-70
2022/11/07 07:45:41;;;;;;;12.52;2.45;;;12.20;99.90;;;;;;5079209;28;20056;-73
2022/11/07 07:48:06;;;;;;;14.23;2.40;;;12.20;99.90;;;;;;5079285;28;20062;-71
2022/11/07 07:50:32;;;;;;;18.10;2.30;;;12.20;99.90;;;;;;5096003;28;20376;-76
2022/11/07 07:52:58;;;;;;;16.20;2.30;;;12.20;99.90;;;;;;5095913;28;20413;-71
2022/11/07 07:55:24;;;;;;;16.40;2.80;;;12.30;99.90;;;;;;5095953;28;20036;-68
2022/11/07 07:57:50;;;;;;;14.27;2.20;;;12.30;99.90;;;;;;5095878;28;20032;-71
2022/11/07 08:00:16;;;;;;;14.57;2.40;;;12.30;99.90;;;;;;5100320;28;20109;-71
2022/11/07 08:02:42;;;;;;;16.77;2.75;;;12.30;99.90;;;;;;5099487;28;20028;-70
2022/11/07 08:05:12;;;;;;;15.93;2.28;;;12.40;99.90;;;;;;5099479;28;20031;-70
2022/11/07 08:07:46;;;;;;;12.48;2.42;;;12.40;99.90;;;;;;5100037;28;20053;-71
2022/11/07 08:10:12;;;;;;;11.60;2.17;;;12.40;99.90;;;;;;5099578;28;20349;-69
2022/11/07 08:12:46;;;;;;;14.52;2.17;;;12.50;99.90;;;;;;5082654;28;20055;-71
2022/11/07 08:15:13;;;;;;;11.50;2.13;;;12.50;99.90;;;;;;5099310;28;20036;-74
2022/11/07 08:17:40;;;;;;;15.48;2.47;;;12.60;99.90;;;;;;5099705;28;20077;-70
2022/11/07 08:20:10;;;;;;;15.35;2.67;;;12.60;99.90;;;;;;5100185;28;20036;-71
2022/11/07 08:22:37;;;;;;;14.82;2.28;;;12.70;99.90;;;;;;5082692;28;20147;-69
2022/11/07 08:25:04;;;;;;;13.63;2.35;;;12.70;99.90;;;;;;5099836;28;20110;-67
2022/11/07 08:27:30;;;;;;;16.70;2.78;;;12.70;99.90;;;;;;5099644;28;20028;-69
2022/11/07 08:29:56;;;;;;;12.85;2.15;;;12.70;99.90;;;;;;5099520;28;20036;-70
2022/11/07 08:32:23;;;;;;;13.85;2.45;;;12.70;99.90;;;;;;5099858;28;20031;-72
2022/11/07 08:34:49;;;;;;;15.23;2.42;;;12.80;99.90;;;;;;5098980;28;20299;-69
2022/11/07 08:37:14;;;;;;;10.85;2.08;;;12.90;99.90;;;;;;5100016;28;20092;-72
2022/11/07 08:39:40;;;;;;;10.60;2.08;;;12.90;99.90;;;;;;5081877;28;20047;-72
2022/11/07 08:42:06;;;;;;;8.43;2.10;;;12.90;99.90;;;;;;5098798;28;20043;-70
2022/11/07 08:44:35;;;;;;;13.60;2.50;;;13.00;99.90;;;;;;5098851;28;20138;-70
2022/11/07 08:47:01;;;;;;;10.27;2.75;;;13.00;99.90;;;;;;5098707;28;20299;-68
2022/11/07 08:49:27;;;;;;;11.52;2.05;;;13.00;99.90;;;;;;5098745;28;20060;-72
2022/11/07 08:51:53;;;;;;;12.10;2.28;;;13.10;99.90;;;;;;5082111;28;20069;-68
2022/11/07 08:54:20;;;;;;;17.35;2.03;;;13.20;99.90;;;;;;5098464;28;20028;-73
2022/11/07 08:56:46;;;;;;;14.65;2.25;;;13.20;99.90;;;;;;5098480;28;20036;-71
2022/11/07 08:59:13;;;;;;;17.48;2.72;;;13.20;99.90;;;;;;5098337;28;20044;-68
2022/11/07 09:01:38;;;;;;;10.23;2.10;;;13.20;99.90;;;;;;5098640;28;20040;-70
2022/11/07 09:04:04;;;;;;;13.80;2.47;;;13.20;99.90;;;;;;5098749;28;20350;-73
2022/11/07 09:06:31;;;;;;;14.63;2.17;;;13.30;99.90;;;;;;5099257;28;20031;-69
2022/11/07 09:08:58;;;;;;;10.35;2.10;;;13.40;99.90;;;;;;5099429;28;20090;-71
2022/11/07 09:11:24;;;;;;;10.55;1.98;;;13.40;99.90;;;;;;5099364;28;20043;-72
2022/11/07 09:13:51;;;;;;;16.00;2.00;;;13.50;99.90;;;;;;5099338;28;20074;-72
2022/11/07 09:16:18;;;;;;;12.32;2.33;;;13.50;99.90;;;;;;5099400;28;20043;-70
2022/11/07 09:18:46;;;;;;;12.45;2.45;;;13.50;99.90;;;;;;5099218;28;20024;-70
2022/11/07 09:21:12;;;;;;;10.40;2.17;;;13.50;99.90;;;;;;5099123;28;20079;-71
2022/11/07 09:23:38;;;;;;;12.48;2.60;;;13.60;99.90;;;;;;5099561;28;20123;-69
2022/11/07 09:26:05;;;;;;;8.80;2.13;;;13.80;99.90;;;;;;5099348;28;20020;-67
2022/11/07 09:28:31;;;;;;;15.52;2.50;;;13.80;99.90;;;;;;5098892;28;20028;-70
2022/11/07 09:30:58;;;;;;;15.07;2.38;;;13.80;99.90;;;;;;5080986;28;20417;-67
2022/11/07 09:33:24;;;;;;;12.43;2.22;;;14.10;99.90;;;;;;5098620;28;20047;-70
2022/11/07 09:35:50;;;;;;;12.65;1.92;;;14.10;99.90;;;;;;5099175;28;20054;-72
2022/11/07 09:38:16;;;;;;;11.07;2.35;;;14.20;99.90;;;;;;5097642;28;20047;-69
2022/11/07 09:41:05;;;;;;;14.95;2.53;;;14.20;99.90;;;;;;5098266;28;20364;-69
2022/11/07 09:43:53;;;;;;;13.70;2.08;;;14.30;99.90;;;;;;5080626;28;20093;-71
2022/11/07 09:46:31;;;;;;;11.13;2.58;;;14.50;99.90;;;;;;5098308;28;20035;-72
2022/11/07 09:49:02;;;;;;;10.73;1.95;;;14.60;99.90;;;;;;5098185;28;20450;-71
2022/11/07 09:51:36;;;;;;;13.68;2.08;;;14.50;99.90;;;;;;5098232;28;20034;-68
2022/11/07 09:54:11;;;;;;;16.58;2.75;;;14.50;99.90;;;;;;5080538;28;20276;-67
2022/11/07 09:56:41;;;;;;;12.43;2.95;;;14.50;99.90;;;;;;5098231;28;20419;-71
2022/11/07 09:59:14;;;;;;;10.32;2.30;;;14.30;99.90;;;;;;5096820;28;20422;-69
2022/11/07 10:01:40;;;;;;;15.65;2.70;;;14.30;99.90;;;;;;5097122;28;20024;-70
2022/11/07 10:04:08;;;;;;;15.93;2.50;;;14.30;99.90;;;;;;5097519;28;20112;-70
2022/11/07 10:06:49;;;;;;;14.35;2.47;;;14.40;99.90;;;;;;5098498;28;20410;-70
2022/11/07 10:09:38;;;;;;;10.65;1.92;;;14.40;99.90;;;;;;5097831;28;20131;-68
2022/11/07 10:12:21;;;;;;;11.85;2.10;;;14.30;99.90;;;;;;5097831;28;20177;-71
2022/11/07 10:14:52;;;;;;;;;;;14.50;99.90;;;;;;5098168;28;20035;-71
2022/11/07 10:17:43;;;;;;;9.95;2.10;;;14.40;99.90;;;;;;5096832;28;19908;-66
2022/11/07 10:20:17;;;;;;;9.13;2.00;;;14.60;99.90;;;;;;5098098;28;20051;-72
2022/11/07 10:22:58;;;;;;;9.63;2.30;;;14.60;99.90;;;;;;5096422;28;20126;-68
2022/11/07 10:25:52;;;;;;;11.75;2.47;;;14.70;99.90;;;;;;5098290;28;20024;-70
2022/11/07 10:28:19;;;;;;;10.30;2.10;;;14.60;99.90;;;;;;5097799;28;20041;-73
2022/11/07 10:30:48;;;;;;;12.25;2.33;;;14.60;99.90;;;;;;5096672;28;20152;-71
2022/11/07 10:33:30;;;;;;;13.43;2.33;;;14.70;99.90;;;;;;5097338;28;20024;-68
2022/11/07 10:36:02;;;;;;;14.30;2.58;;;14.60;99.90;;;;;;5080257;28;20123;-69
2022/11/07 10:38:31;;;;;;;12.30;2.40;;;14.70;99.90;;;;;;5096832;28;20273;-68
2022/11/07 10:40:57;;;;;;;8.18;2.10;;;14.90;99.90;;;;;;5097379;28;20591;-69
2022/11/07 10:43:32;;;;;;;13.00;2.55;;;14.90;99.90;;;;;;5096523;28;20036;-72
2022/11/07 10:46:04;;;;;;;11.07;2.10;;;14.90;99.90;;;;;;5096598;28;20097;-68
2022/11/07 10:48:30;;;;;;;14.18;2.42;;;14.80;99.90;;;;;;5097018;28;20047;-68
2022/11/07 10:50:56;;;;;;;11.13;2.38;;;14.70;99.90;;;;;;5096343;28;20020;-69
2022/11/07 10:53:24;;;;;;;15.82;2.53;;;14.70;99.90;;;;;;5079291;28;20028;-70
2022/11/07 10:55:51;;;;;;;13.75;2.63;;;14.70;99.90;;;;;;5079499;28;20030;-69
2022/11/07 10:58:29;;;;;;;11.07;2.45;;;14.60;99.90;;;;;;5096024;28;20426;-67
2022/11/07 11:01:05;;;;;;;15.52;2.72;;;14.70;99.90;;;;;;5096270;28;20034;-69
2022/11/07 11:03:44;;;;;;;11.82;1.90;;;14.60;99.90;;;;;;5096828;28;20040;-70
2022/11/07 11:06:16;;;;;;;11.82;2.05;;;14.60;99.90;;;;;;5096335;28;20028;-70
2022/11/07 11:08:43;;;;;;;11.02;2.72;;;14.60;99.90;;;;;;5096932;28;20027;-68
2022/11/07 11:11:30;;;;;;;12.57;2.45;;;14.70;99.90;;;;;;5096205;28;20024;-70
2022/11/07 11:14:11;;;;;;;12.30;2.10;;;14.80;99.90;;;;;;5095972;28;20024;-67
2022/11/07 11:16:39;;;;;;;13.98;2.90;;;14.80;99.90;;;;;;5096193;28;20107;-69
2022/11/07 11:19:15;;;;;;;15.73;1.98;;;14.80;99.90;;;;;;5096914;28;20365;-71
2022/11/07 11:21:43;;;;;;;7.13;2.08;;;14.80;99.90;;;;;;5096173;28;20036;-69
2022/11/07 11:24:22;;;;;;;10.35;2.13;;;14.80;99.90;;;;;;5096077;28;20027;-67
2022/11/07 11:26:51;;;;;;;12.25;2.25;;;14.80;99.90;;;;;;5096813;28;20032;-69
2022/11/07 11:29:41;;;;;;;10.10;2.13;;;14.80;99.90;;;;;;5096347;28;20009;-66
2022/11/07 11:32:28;;;;;;;10.90;1.90;;;14.90;99.90;;;;;;5096905;28;20047;-65
2022/11/07 11:35:04;;;;;;;11.95;2.13;;;14.90;99.90;;;;;;5099855;28;20078;-70
2022/11/07 11:37:34;;;;;;;12.43;2.25;;;15.00;99.90;;;;;;5100032;28;20032;-67
2022/11/07 11:40:03;;;;;;;9.55;2.20;;;15.10;99.90;;;;;;5101186;28;20043;-68
2022/11/07 11:42:44;;;;;;;13.65;2.45;;;15.00;99.90;;;;;;5101126;28;20024;-69
2022/11/07 11:45:23;;;;;;;10.98;1.90;;;15.00;99.90;;;;;;5100081;28;20020;-68
2022/11/07 11:48:03;;;;;;;7.90;1.60;;;14.90;99.90;;;;;;5099854;28;20028;-66
2022/11/07 11:50:42;;;;;;;12.32;2.55;;;14.80;99.90;;;;;;5101049;28;20287;-67
2022/11/07 11:53:17;;;;;;;10.45;2.10;;;14.90;99.90;;;;;;5100457;28;20287;-66
2022/11/07 11:55:59;;;;;;;14.02;1.75;;;15.00;99.90;;;;;;5100381;28;20032;-69
2022/11/07 11:58:41;;;;;;;15.07;2.00;;;14.90;99.90;;;;;;5099524;28;20086;-69
2022/11/07 12:01:25;;;;;;;11.52;1.98;;;15.00;99.90;;;;;;5100357;28;20032;-69
2022/11/07 12:04:15;;;;;;;9.13;1.85;;;14.90;99.90;;;;;;5100029;28;20032;-71
2022/11/07 12:06:45;;;;;;;7.45;1.63;;;14.90;99.90;;;;;;5100185;28;20055;-67
2022/11/07 12:09:43;;;;;;;11.88;2.10;;;14.90;99.90;;;;;;5099843;28;20352;-70
2022/11/07 12:12:33;;;;;;;14.35;2.65;;;14.90;99.90;;;;;;5100529;28;20032;-69
2022/11/07 12:15:21;;;;;;;11.75;2.10;;;14.90;99.90;;;;;;5099980;28;20062;-67
2022/11/07 12:18:01;;;;;;;10.75;2.22;;;14.90;99.90;;;;;;5099120;28;20336;-69
2022/11/07 12:20:54;;;;;;;11.63;2.70;;;14.90;99.90;;;;;;5100176;28;20085;-68
2022/11/07 12:23:58;;;;;;;11.20;2.20;;;15.00;99.90;;;;;;5100109;28;20036;-68
2022/11/07 12:26:27;;;;;;;13.70;2.05;;;14.90;99.90;;;;;;5099413;28;20032;-67
2022/11/07 12:28:53;;;;;;;8.60;1.58;;;15.00;99.90;;;;;;5098895;28;20028;-68
2022/11/07 12:31:57;;;;;;;11.48;1.75;;;15.00;99.90;;;;;;5099132;28;20042;-68
2022/11/07 12:34:29;;;;;;;8.68;1.65;;;15.00;99.90;;;;;;5018249;28;20074;-71
2022/11/07 12:37:16;;;;;;;10.85;1.90;;;15.10;99.90;;;;;;5086029;28;20036;-69
2022/11/07 12:40:29;;;;;;;9.80;1.85;;;15.20;99.90;;;;;;5099524;28;20040;-67
2022/11/07 12:43:10;;;;;;;7.88;1.42;;;15.10;99.90;;;;;;5017885;28;20041;-69
2022/11/07 12:45:54;;;;;;;7.07;1.40;;;15.10;99.90;;;;;;5105073;28;20062;-68
2022/11/07 12:48:34;;;;;;;8.35;1.52;;;15.30;99.90;;;;;;5099512;28;20028;-70
2022/11/07 12:51:25;;;;;;;6.43;1.42;;;15.30;99.90;;;;;;5082055;28;20077;-71
2022/11/07 12:54:22;;;;;;;6.05;1.55;;;15.30;99.90;;;;;;5098549;28;20083;-69
2022/11/07 12:56:49;;;;;;;9.20;1.77;;;15.40;99.90;;;;;;5099210;28;20020;-70
2022/11/07 12:59:22;;;;;;;10.27;1.60;;;15.60;99.90;;;;;;5098627;28;20144;-71
2022/11/07 13:01:59;;;;;;;7.93;1.63;;;15.70;99.90;;;;;;5099309;28;20042;-69
2022/11/07 13:04:42;;;;;;;7.03;2.20;;;15.70;99.90;;;;;;5098387;28;20024;-70
2022/11/07 13:07:57;;;;;;;13.27;1.95;;;15.60;99.90;;;;;;5098395;28;20028;-71